Terminal Aerodrome Forecast
Issued by NWS Mt. Holly, NJ

Home | Current Version | Previous Version | Text Only | Print | Product List | Glossary On
Versions: 1 2 3 4 5 6 7 8 9 10 11 12 13 14 15 16 17 18 19 20 21 22
929
FTUS41 KPHI 292217 AAB
TAFPHL
TAF AMD
KPHL 292217Z 2922/3024 19010KT P6SM VCSH SCT040 BKN150
      TEMPO 2923/3002 3SM -SHRA BR OVC035
     FM300200 20006KT 6SM -SHRA BR BKN025 OVC050
      TEMPO 3006/3010 4SM SHRA BKN015
     FM301000 36003KT 4SM -SHRA BR OVC015
      TEMPO 3010/3013 2SM SHRA BR OVC007
     FM301300 00000KT 2SM -SHRA BR OVC007
     FM301700 VRB03KT 4SM -SHRA BR OVC007=

USA.gov is the U.S. government's official web portal to all federal, state and local government web resources and services.